Time;durP1;ratioP1;P1;durP2;ratioP2;P2;SDS_P1;SDS_P2;PMS_P1;PMS_P2;Temp;Humidity;BMP_temperature;BMP_pressure;BME280_temperature;BME280_humidity;BME280_pressure;Samples;Min_cycle;Max_cycle;Signal;HPM_P1;HPM_P2
2024/02/26 00:01:53;;;;;;;23.67;21.97;;;2.70;88.70;;;;;;5123088;28;20172;-88
2024/02/26 00:04:18;;;;;;;24.03;22.23;;;2.70;89.00;;;;;;5123091;28;20177;-88
2024/02/26 00:06:44;;;;;;;24.57;22.57;;;2.60;89.00;;;;;;5124736;28;20290;-87
2024/02/26 00:09:10;;;;;;;22.83;21.13;;;2.60;89.20;;;;;;5123799;28;20283;-88
2024/02/26 00:11:36;;;;;;;23.77;21.90;;;2.50;89.40;;;;;;5122734;28;20210;-88
2024/02/26 00:14:02;;;;;;;23.40;21.60;;;2.50;89.70;;;;;;5123647;28;20268;-88
2024/02/26 00:16:28;;;;;;;22.50;20.90;;;2.50;89.80;;;;;;5124664;28;20173;-87
2024/02/26 00:18:54;;;;;;;22.83;21.13;;;2.60;89.90;;;;;;5122848;28;20254;-88
2024/02/26 00:21:19;;;;;;;21.83;20.17;;;2.50;90.00;;;;;;5124208;28;20710;-88
2024/02/26 00:23:45;;;;;;;22.83;21.00;;;2.50;90.00;;;;;;5122892;28;20176;-87
2024/02/26 00:26:10;;;;;;;23.30;21.30;;;2.50;90.10;;;;;;5124797;27;20223;-88
2024/02/26 00:28:36;;;;;;;23.53;21.63;;;2.50;90.20;;;;;;5124422;28;20253;-88
2024/02/26 00:31:02;;;;;;;22.53;20.83;;;2.40;90.10;;;;;;5124391;28;20203;-87
2024/02/26 00:33:28;;;;;;;22.60;20.87;;;2.40;90.10;;;;;;5123932;27;20176;-88
2024/02/26 00:35:53;;;;;;;22.90;21.30;;;2.30;90.20;;;;;;5123031;28;20174;-87
2024/02/26 00:38:19;;;;;;;23.60;21.90;;;2.30;90.10;;;;;;5124702;28;20190;-88
2024/02/26 00:40:44;;;;;;;23.63;21.83;;;2.30;90.10;;;;;;5123455;28;20197;-87
2024/02/26 00:43:10;;;;;;;25.63;23.63;;;2.30;90.00;;;;;;5124236;28;20181;-87
2024/02/26 00:45:36;;;;;;;24.80;22.80;;;2.30;89.90;;;;;;5124867;28;20189;-87
2024/02/26 00:48:05;;;;;;;24.57;22.67;;;2.30;89.80;;;;;;5125073;28;20223;-87
2024/02/26 00:50:34;;;;;;;24.97;22.90;;;2.30;89.70;;;;;;5123579;28;20195;-87
2024/02/26 00:53:01;;;;;;;24.37;22.47;;;2.40;89.60;;;;;;5124409;28;20170;-88
2024/02/26 00:55:27;;;;;;;24.53;22.63;;;2.30;89.70;;;;;;5122966;28;20180;-88
2024/02/26 00:57:52;;;;;;;25.80;23.60;;;2.30;89.60;;;;;;5123825;28;20629;-87
2024/02/26 01:00:18;;;;;;;24.13;22.23;;;2.10;89.60;;;;;;5123277;28;20178;-88
2024/02/26 01:02:46;;;;;;;37.03;34.33;;;2.00;89.90;;;;;;5124572;28;20174;-88
2024/02/26 01:05:12;;;;;;;39.87;36.97;;;2.10;90.20;;;;;;5123799;28;20188;-87
2024/02/26 01:07:39;;;;;;;38.27;35.53;;;2.20;90.10;;;;;;5123682;28;20165;-88
2024/02/26 01:10:05;;;;;;;40.83;37.87;;;2.10;89.90;;;;;;5123609;28;20205;-87
2024/02/26 01:12:34;;;;;;;38.53;35.57;;;2.10;90.00;;;;;;5125932;28;20162;-87
2024/02/26 01:15:01;;;;;;;25.27;23.07;;;2.00;89.90;;;;;;5123684;28;20209;-88
2024/02/26 01:17:26;;;;;;;36.33;33.43;;;2.00;89.90;;;;;;5125417;28;20198;-87
2024/02/26 01:19:55;;;;;;;28.53;26.33;;;2.10;89.90;;;;;;5124248;28;20640;-87
2024/02/26 01:22:21;;;;;;;40.70;37.63;;;2.00;89.70;;;;;;5124765;28;20253;-87
2024/02/26 01:24:46;;;;;;;40.30;37.50;;;2.00;89.50;;;;;;5123804;28;20218;-87
2024/02/26 01:27:14;;;;;;;41.70;38.67;;;2.00;89.40;;;;;;5124979;28;20215;-87
2024/02/26 01:29:39;;;;;;;40.10;37.20;;;2.00;89.20;;;;;;5124534;28;20186;-87
2024/02/26 01:32:05;;;;;;;40.13;37.03;;;2.00;89.10;;;;;;5123592;28;20170;-87
2024/02/26 01:34:31;;;;;;;40.87;37.90;;;2.00;89.20;;;;;;5122885;28;20184;-87
2024/02/26 01:36:57;;;;;;;42.53;39.50;;;2.00;89.10;;;;;;5122823;28;20185;-87
2024/02/26 01:39:22;;;;;;;40.63;37.63;;;1.90;89.10;;;;;;5123353;28;20257;-87
2024/02/26 01:41:48;;;;;;;39.97;37.07;;;1.90;89.20;;;;;;5123258;28;20220;-87
2024/02/26 01:44:13;;;;;;;42.70;39.57;;;1.90;89.10;;;;;;5122745;28;20642;-87
2024/02/26 01:46:39;;;;;;;39.47;36.60;;;1.90;89.10;;;;;;5123142;28;20176;-88
2024/02/26 01:49:06;;;;;;;38.60;35.90;;;1.90;89.00;;;;;;5122870;28;20257;-87
2024/02/26 01:51:33;;;;;;;40.83;37.93;;;1.80;88.90;;;;;;5123107;28;20222;-87
2024/02/26 01:54:02;;;;;;;39.63;36.67;;;1.80;88.90;;;;;;5124375;28;20170;-87
2024/02/26 01:56:31;;;;;;;27.27;25.00;;;1.80;88.90;;;;;;5123390;28;20181;-87
2024/02/26 01:58:57;;;;;;;27.67;25.53;;;1.80;88.90;;;;;;5123006;28;20223;-87
2024/02/26 02:01:26;;;;;;;28.03;25.63;;;1.80;88.90;;;;;;5124927;28;20281;-88
2024/02/26 02:03:52;;;;;;;43.43;40.13;;;1.80;89.00;;;;;;5125754;28;20175;-87
2024/02/26 02:06:19;;;;;;;45.67;42.27;;;1.90;89.20;;;;;;5124257;28;20224;-87
2024/02/26 02:08:44;;;;;;;46.83;43.23;;;1.90;89.20;;;;;;5124498;28;20204;-87
2024/02/26 02:11:11;;;;;;;42.63;39.53;;;1.90;89.40;;;;;;5124604;28;20220;-87
2024/02/26 02:13:37;;;;;;;43.67;40.43;;;1.80;89.50;;;;;;5125930;28;20241;-87
2024/02/26 02:16:04;;;;;;;43.13;39.83;;;1.90;89.70;;;;;;5126722;28;20181;-87
2024/02/26 02:18:29;;;;;;;43.07;39.70;;;1.80;89.90;;;;;;5126745;28;20182;-87
2024/02/26 02:20:56;;;;;;;42.47;39.20;;;1.80;90.00;;;;;;5125902;28;20191;-87
2024/02/26 02:23:22;;;;;;;42.47;39.10;;;1.80;90.20;;;;;;5126825;28;20658;-87
2024/02/26 02:25:47;;;;;;;42.67;39.37;;;1.80;90.30;;;;;;5119771;28;20183;-87
2024/02/26 02:28:13;;;;;;;43.97;40.43;;;1.80;90.30;;;;;;5126990;28;20206;-87
2024/02/26 02:30:39;;;;;;;42.17;37.63;;;1.80;90.30;;;;;;5126105;28;20197;-87
2024/02/26 02:33:05;;;;;;;41.83;37.33;;;1.80;90.30;;;;;;5126889;28;20170;-87
2024/02/26 02:35:30;;;;;;;48.80;38.97;;;1.80;90.30;;;;;;5127209;28;20171;-87
2024/02/26 02:37:57;;;;;;;71.67;37.13;;;1.60;90.20;;;;;;5126074;28;20223;-87
2024/02/26 02:40:22;;;;;;;45.73;24.53;;;1.60;90.30;;;;;;5125418;28;20185;-86
2024/02/26 02:42:48;;;;;;;41.63;25.07;;;1.50;90.40;;;;;;5127361;28;20166;-87
2024/02/26 02:45:13;;;;;;;51.43;25.00;;;1.40;90.50;;;;;;5126947;28;20580;-87
2024/02/26 02:47:39;;;;;;;60.83;37.13;;;1.30;90.60;;;;;;5126545;28;20170;-86
2024/02/26 02:50:05;;;;;;;47.83;34.97;;;1.20;90.90;;;;;;5125008;28;20207;-87
2024/02/26 02:52:30;;;;;;;41.90;37.40;;;1.10;91.00;;;;;;5125895;28;20201;-87
2024/02/26 02:54:56;;;;;;;52.40;37.60;;;1.10;91.20;;;;;;5126656;28;20170;-87
2024/02/26 02:57:22;;;;;;;39.63;35.63;;;1.10;91.40;;;;;;5125386;28;20174;-87
2024/02/26 02:59:47;;;;;;;41.90;35.23;;;1.00;91.50;;;;;;5126578;28;20302;-87
2024/02/26 03:02:13;;;;;;;58.73;35.40;;;0.90;91.60;;;;;;5125936;28;20184;-87
2024/02/26 03:04:38;;;;;;;51.27;34.63;;;0.80;91.60;;;;;;5125788;28;20176;-87
2024/02/26 03:07:04;;;;;;;50.63;35.73;;;0.80;91.80;;;;;;5126078;28;20218;-87
2024/02/26 03:09:30;;;;;;;74.23;37.00;;;0.70;91.90;;;;;;5124791;28;20194;-87
2024/02/26 03:11:55;;;;;;;110.83;38.30;;;0.70;92.10;;;;;;5126083;28;20616;-86
2024/02/26 03:14:21;;;;;;;77.70;38.33;;;0.70;92.20;;;;;;5125963;28;20169;-86
2024/02/26 03:16:46;;;;;;;99.23;39.73;;;0.80;92.30;;;;;;5125675;28;20179;-87
2024/02/26 03:19:16;;;;;;;145.57;43.00;;;0.80;92.50;;;;;;5124489;28;20201;-87
2024/02/26 03:21:42;;;;;;;94.23;39.33;;;0.80;92.60;;;;;;5126272;28;20172;-86
2024/02/26 03:24:10;;;;;;;126.43;33.57;;;0.80;92.70;;;;;;5124440;28;20188;-87
2024/02/26 03:26:36;;;;;;;113.27;32.13;;;0.80;92.80;;;;;;5126368;28;20175;-87
2024/02/26 03:29:02;;;;;;;114.20;33.13;;;0.90;93.00;;;;;;5124761;28;20211;-87
2024/02/26 03:31:28;;;;;;;122.97;39.53;;;0.90;93.00;;;;;;5125865;28;20200;-86
2024/02/26 03:33:53;;;;;;;105.13;42.17;;;0.90;93.10;;;;;;5123785;28;20198;-88
2024/02/26 03:36:19;;;;;;;125.73;41.67;;;0.90;93.10;;;;;;5124844;28;20170;-87
2024/02/26 03:38:45;;;;;;;123.33;41.13;;;0.90;93.20;;;;;;5123878;28;20188;-87
2024/02/26 03:41:11;;;;;;;96.23;40.20;;;0.90;93.30;;;;;;5125403;28;20212;-86
2024/02/26 03:43:36;;;;;;;116.87;44.83;;;0.90;93.30;;;;;;5124160;28;20184;-87
2024/02/26 03:46:02;;;;;;;83.47;41.50;;;0.90;93.40;;;;;;5125241;28;20186;-87
2024/02/26 03:48:27;;;;;;;84.67;33.53;;;0.90;93.40;;;;;;5124934;28;20202;-87
2024/02/26 03:50:53;;;;;;;139.77;32.67;;;0.80;93.50;;;;;;5125390;28;20209;-86
2024/02/26 03:53:18;;;;;;;180.50;34.73;;;0.80;93.60;;;;;;5123863;28;20185;-86
2024/02/26 03:55:44;;;;;;;211.23;36.87;;;0.90;93.70;;;;;;5124810;28;20250;-87
2024/02/26 03:58:12;;;;;;;127.23;35.20;;;0.90;93.70;;;;;;5124734;28;20299;-87
2024/02/26 04:00:37;;;;;;;108.03;38.27;;;0.90;93.80;;;;;;5124188;28;20175;-87
2024/02/26 04:03:03;;;;;;;74.80;35.13;;;1.00;93.90;;;;;;5125297;28;20181;-87
2024/02/26 04:05:28;;;;;;;63.97;35.37;;;1.00;93.90;;;;;;5124835;28;20189;-87
2024/02/26 04:07:54;;;;;;;110.40;35.87;;;0.90;93.90;;;;;;5125684;28;20197;-87
2024/02/26 04:10:19;;;;;;;142.70;38.33;;;1.00;94.00;;;;;;5127383;28;20212;-87
2024/02/26 04:12:45;;;;;;;168.73;38.93;;;1.00;94.00;;;;;;5126761;28;20170;-87
2024/02/26 04:15:11;;;;;;;191.00;41.97;;;1.10;94.10;;;;;;5128513;28;20589;-87
2024/02/26 04:17:37;;;;;;;216.00;41.80;;;1.10;94.10;;;;;;5126571;28;20211;-87
2024/02/26 04:20:05;;;;;;;177.47;43.97;;;1.10;94.10;;;;;;5126830;28;20228;-87
2024/02/26 04:22:31;;;;;;;208.60;43.77;;;1.10;94.10;;;;;;5128863;28;20178;-87
2024/02/26 04:24:56;;;;;;;219.20;42.97;;;1.10;94.10;;;;;;5128886;28;20185;-87
2024/02/26 04:27:22;;;;;;;256.90;46.63;;;1.10;94.20;;;;;;5127378;28;20273;-88
2024/02/26 04:29:47;;;;;;;178.97;37.93;;;1.10;94.20;;;;;;5126599;28;20213;-86
2024/02/26 04:32:13;;;;;;;182.40;38.00;;;1.10;94.30;;;;;;5127456;28;20175;-86
2024/02/26 04:34:38;;;;;;;189.67;37.47;;;1.10;94.30;;;;;;5127857;28;20169;-87
2024/02/26 04:37:04;;;;;;;244.87;38.90;;;1.00;94.20;;;;;;5127881;28;20200;-86
2024/02/26 04:39:29;;;;;;;230.47;40.53;;;1.00;94.30;;;;;;5127928;28;20189;-86
2024/02/26 04:41:55;;;;;;;220.97;38.90;;;1.00;94.30;;;;;;5128802;28;20170;-87
2024/02/26 04:44:20;;;;;;;229.63;40.67;;;1.00;94.30;;;;;;5127521;28;20184;-87
2024/02/26 04:46:46;;;;;;;208.57;36.43;;;0.90;94.40;;;;;;5127823;28;20192;-88
2024/02/26 04:49:11;;;;;;;163.53;33.70;;;0.90;94.40;;;;;;5127309;28;20197;-87
2024/02/26 04:51:37;;;;;;;202.20;35.60;;;0.90;94.50;;;;;;5128312;28;20202;-87
2024/02/26 04:54:03;;;;;;;248.20;36.60;;;0.90;94.40;;;;;;5126915;28;20633;-86
2024/02/26 04:56:28;;;;;;;205.63;36.87;;;0.80;94.50;;;;;;5127686;28;20246;-87
2024/02/26 04:58:54;;;;;;;223.80;39.67;;;0.80;94.50;;;;;;5127267;28;20228;-87
2024/02/26 05:01:19;;;;;;;175.67;36.63;;;0.80;94.50;;;;;;5127398;28;20596;-87
2024/02/26 05:03:45;;;;;;;182.03;36.00;;;0.70;94.50;;;;;;5126596;28;20185;-87
2024/02/26 05:06:10;;;;;;;225.10;38.30;;;0.70;94.60;;;;;;5128220;27;20189;-88
2024/02/26 05:08:37;;;;;;;206.73;36.77;;;0.70;94.60;;;;;;5127864;28;20607;-86
2024/02/26 05:11:03;;;;;;;168.37;32.80;;;0.70;94.60;;;;;;5127881;28;20196;-88
2024/02/26 05:13:29;;;;;;;193.57;36.07;;;0.70;94.60;;;;;;5120455;28;20193;-86
2024/02/26 05:15:55;;;;;;;198.00;36.63;;;0.70;94.70;;;;;;5128520;28;20208;-86
2024/02/26 05:18:21;;;;;;;205.23;36.77;;;0.70;94.70;;;;;;5127055;28;20216;-86
2024/02/26 05:20:47;;;;;;;201.40;37.53;;;0.70;94.80;;;;;;5127560;28;20262;-87
2024/02/26 05:23:12;;;;;;;225.63;43.57;;;0.70;94.80;;;;;;5129379;28;20169;-86
2024/02/26 05:25:38;;;;;;;205.43;41.93;;;0.80;94.80;;;;;;5129074;28;20180;-87
2024/02/26 05:28:04;;;;;;;191.30;36.50;;;0.70;94.80;;;;;;5128827;28;20199;-87
2024/02/26 05:30:29;;;;;;;194.90;39.97;;;0.80;94.90;;;;;;5126906;28;20221;-88
2024/02/26 05:32:55;;;;;;;180.23;34.20;;;0.70;94.90;;;;;;5127783;28;20184;-87
2024/02/26 05:35:20;;;;;;;154.60;32.20;;;0.70;94.90;;;;;;5128425;28;20177;-86
2024/02/26 05:37:46;;;;;;;114.90;36.47;;;0.70;94.90;;;;;;5128603;28;20199;-87
2024/02/26 05:40:12;;;;;;;112.83;36.80;;;0.60;94.90;;;;;;5127240;28;20176;-86
2024/02/26 05:42:37;;;;;;;149.37;38.50;;;0.50;94.90;;;;;;5126877;28;20540;-86
2024/02/26 05:45:06;;;;;;;154.50;38.13;;;0.50;94.90;;;;;;5128124;28;20220;-87
2024/02/26 05:47:32;;;;;;;140.87;41.97;;;0.60;95.00;;;;;;5126946;28;20181;-87
2024/02/26 05:50:00;;;;;;;118.93;36.27;;;0.60;95.00;;;;;;5128421;28;20240;-88
2024/02/26 05:52:27;;;;;;;146.43;38.10;;;0.50;95.00;;;;;;5127979;28;20241;-87
2024/02/26 05:54:53;;;;;;;137.77;37.90;;;0.50;95.00;;;;;;5128612;28;20177;-87
2024/02/26 05:57:18;;;;;;;137.20;35.50;;;0.50;95.00;;;;;;5127307;28;20172;-88
2024/02/26 05:59:44;;;;;;;146.30;36.50;;;0.50;95.00;;;;;;5127754;28;20269;-88
2024/02/26 06:02:09;;;;;;;178.23;39.00;;;0.50;95.00;;;;;;5126312;28;20189;-86
2024/02/26 06:04:35;;;;;;;125.97;40.87;;;0.40;95.00;;;;;;5127486;28;20175;-87
2024/02/26 06:07:00;;;;;;;140.40;38.17;;;0.40;95.00;;;;;;5127878;28;20180;-87
2024/02/26 06:09:26;;;;;;;118.60;39.10;;;0.30;95.00;;;;;;5126782;28;20252;-87
2024/02/26 06:11:52;;;;;;;93.67;41.63;;;0.30;95.00;;;;;;5127440;28;20286;-87
2024/02/26 06:14:18;;;;;;;73.77;39.50;;;0.30;95.00;;;;;;5127130;28;20172;-87
2024/02/26 06:16:44;;;;;;;61.13;39.50;;;0.30;95.10;;;;;;5126060;28;20184;-88
2024/02/26 06:19:10;;;;;;;66.67;41.03;;;0.30;95.10;;;;;;5127553;28;20196;-88
2024/02/26 06:21:36;;;;;;;58.47;38.53;;;0.40;95.10;;;;;;5128026;28;20200;-87
2024/02/26 06:24:02;;;;;;;57.07;39.77;;;0.50;95.10;;;;;;5126320;28;20180;-87
2024/02/26 06:26:29;;;;;;;49.40;37.27;;;0.50;95.10;;;;;;5125708;28;20561;-87
2024/02/26 06:28:55;;;;;;;49.73;37.30;;;0.50;95.20;;;;;;5127436;28;20200;-89
2024/02/26 06:31:22;;;;;;;52.40;39.53;;;0.60;95.20;;;;;;5126879;28;20225;-87
2024/02/26 06:33:48;;;;;;;50.13;36.43;;;0.60;95.20;;;;;;5118399;28;20682;-89
2024/02/26 06:36:14;;;;;;;47.77;36.33;;;0.70;95.20;;;;;;5123251;28;20181;-86
2024/02/26 06:38:39;;;;;;;46.50;36.90;;;0.70;95.20;;;;;;5126986;28;20197;-87
2024/02/26 06:41:05;;;;;;;52.00;34.27;;;0.70;95.20;;;;;;5127705;28;20176;-88
2024/02/26 06:43:30;;;;;;;46.10;31.57;;;0.70;95.20;;;;;;5126736;28;20177;-87
2024/02/26 06:45:56;;;;;;;42.70;32.17;;;0.70;95.20;;;;;;5125768;28;20272;-88
2024/02/26 06:48:24;;;;;;;49.87;38.13;;;0.70;95.20;;;;;;5126626;28;20267;-86
2024/02/26 06:50:50;;;;;;;47.23;37.47;;;0.70;95.20;;;;;;5127992;28;20220;-87
2024/02/26 06:53:16;;;;;;;42.93;36.73;;;0.70;95.20;;;;;;5127159;28;20258;-86
2024/02/26 06:55:42;;;;;;;48.50;36.83;;;0.60;95.10;;;;;;5125872;28;20184;-88
2024/02/26 06:58:08;;;;;;;43.53;35.70;;;0.60;95.10;;;;;;5126873;28;20192;-87
2024/02/26 07:00:34;;;;;;;48.17;36.57;;;0.60;95.20;;;;;;5127788;28;20177;-86
2024/02/26 07:03:00;;;;;;;47.10;38.07;;;0.60;95.20;;;;;;5126753;28;20273;-88
2024/02/26 07:05:25;;;;;;;45.70;37.50;;;0.60;95.10;;;;;;5128063;28;20192;-87
2024/02/26 07:07:51;;;;;;;45.30;36.03;;;0.70;95.10;;;;;;5126222;28;20220;-87
2024/02/26 07:10:16;;;;;;;43.73;36.57;;;0.70;95.20;;;;;;5117895;28;20321;-87
2024/02/26 07:12:42;;;;;;;49.23;36.50;;;0.70;95.20;;;;;;5112709;28;20272;-87
2024/02/26 07:15:09;;;;;;;43.77;36.37;;;0.70;95.10;;;;;;5112936;28;20271;-86
2024/02/26 07:17:34;;;;;;;47.33;37.87;;;0.80;95.10;;;;;;5113897;28;20173;-86
2024/02/26 07:20:00;;;;;;;42.60;35.30;;;0.80;95.20;;;;;;5112812;28;20188;-85
2024/02/26 07:22:25;;;;;;;42.37;35.83;;;0.80;95.10;;;;;;5114187;28;20216;-86
2024/02/26 07:24:51;;;;;;;40.83;31.23;;;0.80;95.10;;;;;;5114014;28;20268;-86
2024/02/26 07:27:18;;;;;;;37.73;29.90;;;0.80;95.10;;;;;;5114321;28;20181;-86
2024/02/26 07:29:44;;;;;;;41.10;30.97;;;0.90;95.10;;;;;;5112510;28;20198;-86
2024/02/26 07:32:10;;;;;;;46.20;36.20;;;0.90;95.10;;;;;;5112314;28;20551;-87
2024/02/26 07:34:37;;;;;;;40.97;35.80;;;0.90;95.10;;;;;;5113402;28;20523;-86
2024/02/26 07:37:03;;;;;;;42.70;34.97;;;1.00;95.10;;;;;;5112382;28;20697;-87
2024/02/26 07:39:28;;;;;;;43.23;36.23;;;1.00;95.10;;;;;;5112206;28;20202;-86
2024/02/26 07:41:54;;;;;;;40.73;35.93;;;1.00;95.10;;;;;;5112114;28;20636;-85
2024/02/26 07:44:19;;;;;;;44.07;36.80;;;1.10;95.10;;;;;;5115198;28;20185;-87
2024/02/26 07:46:45;;;;;;;46.00;36.33;;;1.20;95.10;;;;;;5117561;28;20176;-84
2024/02/26 07:49:10;;;;;;;44.93;35.43;;;1.20;95.10;;;;;;5117255;28;20193;-86
2024/02/26 07:51:36;;;;;;;46.73;35.57;;;1.30;95.10;;;;;;5117834;28;20198;-86
2024/02/26 07:54:02;;;;;;;48.33;37.60;;;1.30;95.10;;;;;;5117899;28;20177;-86
2024/02/26 07:56:27;;;;;;;45.73;36.70;;;1.40;95.10;;;;;;5116650;28;20188;-87
2024/02/26 07:58:53;;;;;;;48.37;36.67;;;1.40;95.10;;;;;;5117933;28;20197;-87
2024/02/26 08:01:18;;;;;;;45.83;34.63;;;1.50;95.10;;;;;;5118095;28;20170;-87
2024/02/26 08:03:44;;;;;;;45.70;36.83;;;1.60;95.10;;;;;;5117577;28;20551;-87
2024/02/26 08:06:10;;;;;;;44.27;32.60;;;1.60;95.10;;;;;;5117531;28;20690;-87
2024/02/26 08:08:35;;;;;;;39.80;30.07;;;1.70;95.10;;;;;;5117399;28;20613;-86
2024/02/26 08:11:01;;;;;;;42.07;30.80;;;1.80;95.10;;;;;;5116843;28;20209;-88
2024/02/26 08:13:26;;;;;;;46.13;35.07;;;1.80;95.10;;;;;;5117591;28;20181;-86
2024/02/26 08:15:52;;;;;;;43.73;35.93;;;1.80;95.10;;;;;;5116228;28;20177;-86
2024/02/26 08:18:19;;;;;;;40.67;33.13;;;1.80;95.00;;;;;;5117844;28;20190;-87
2024/02/26 08:20:44;;;;;;;44.13;35.07;;;1.90;95.00;;;;;;5117669;28;20189;-87
2024/02/26 08:23:10;;;;;;;44.07;35.33;;;1.90;95.00;;;;;;5119020;27;20181;-86
2024/02/26 08:25:35;;;;;;;47.23;34.20;;;2.10;95.10;;;;;;5118434;28;20182;-87
2024/02/26 08:28:01;;;;;;;39.03;33.40;;;2.10;95.10;;;;;;5118033;28;20578;-86
2024/02/26 08:30:26;;;;;;;41.40;33.70;;;2.20;95.10;;;;;;5117261;28;20214;-87
2024/02/26 08:32:52;;;;;;;42.33;35.03;;;2.30;95.10;;;;;;5118628;28;20253;-86
2024/02/26 08:35:18;;;;;;;42.17;33.73;;;2.30;95.10;;;;;;5117950;28;20642;-87
2024/02/26 08:37:45;;;;;;;42.83;33.43;;;2.40;95.10;;;;;;5120928;28;20549;-87
2024/02/26 08:40:11;;;;;;;42.30;34.40;;;2.50;95.10;;;;;;5120673;28;20186;-87
2024/02/26 08:42:37;;;;;;;43.77;34.50;;;2.50;95.10;;;;;;5118865;28;20283;-86
2024/02/26 08:45:03;;;;;;;37.00;30.57;;;2.60;95.10;;;;;;5121297;28;20170;-86
2024/02/26 08:47:28;;;;;;;37.57;31.17;;;2.70;95.10;;;;;;5119741;28;20559;-86
2024/02/26 08:49:54;;;;;;;37.80;28.47;;;2.70;95.10;;;;;;5121365;28;20604;-86
2024/02/26 08:52:21;;;;;;;33.97;25.93;;;2.80;95.00;;;;;;5117636;28;20695;-87
2024/02/26 08:54:47;;;;;;;33.57;28.00;;;2.80;95.00;;;;;;5116928;28;20197;-86
2024/02/26 08:57:12;;;;;;;34.57;26.47;;;2.80;95.00;;;;;;5117199;28;20176;-86
2024/02/26 08:59:38;;;;;;;37.13;27.50;;;2.80;94.90;;;;;;5116553;28;20198;-86
2024/02/26 09:02:03;;;;;;;34.93;27.60;;;2.90;94.90;;;;;;5117491;28;20200;-86
2024/02/26 09:04:29;;;;;;;34.37;26.27;;;2.90;94.90;;;;;;5117827;28;20174;-86
2024/02/26 09:06:55;;;;;;;31.20;25.67;;;2.90;94.80;;;;;;5117442;28;20572;-86
2024/02/26 09:09:22;;;;;;;35.97;27.10;;;3.10;94.90;;;;;;5115598;28;20198;-86
2024/02/26 09:11:48;;;;;;;34.47;26.23;;;3.00;94.80;;;;;;5117033;28;20193;-86
2024/02/26 09:14:14;;;;;;;29.13;24.47;;;3.10;94.90;;;;;;5115331;28;20261;-86
2024/02/26 09:16:39;;;;;;;32.37;26.50;;;3.20;94.80;;;;;;5115461;28;20258;-86
2024/02/26 09:19:05;;;;;;;30.07;25.73;;;3.20;94.80;;;;;;5117256;28;20559;-86
2024/02/26 09:21:30;;;;;;;31.43;25.57;;;3.20;94.70;;;;;;5117212;27;20630;-86
2024/02/26 09:23:56;;;;;;;32.33;26.50;;;3.30;94.70;;;;;;5115602;28;20648;-87
2024/02/26 09:26:21;;;;;;;31.53;26.97;;;3.30;94.70;;;;;;5116270;28;20418;-86
2024/02/26 09:28:47;;;;;;;31.50;25.83;;;3.40;94.60;;;;;;5115806;28;20200;-86
2024/02/26 09:31:15;;;;;;;32.20;25.67;;;3.40;94.60;;;;;;5116223;28;20234;-88
2024/02/26 09:33:41;;;;;;;30.33;25.47;;;3.40;94.40;;;;;;5115615;28;20170;-87
2024/02/26 09:36:06;;;;;;;33.00;27.30;;;3.50;94.40;;;;;;5116601;28;20654;-85
2024/02/26 09:38:36;;;;;;;30.73;25.77;;;3.60;94.40;;;;;;5114935;28;20205;-86
2024/02/26 09:41:02;;;;;;;31.80;26.10;;;3.60;94.30;;;;;;5116272;28;20171;-89
2024/02/26 09:43:34;;;;;;;31.93;26.13;;;3.80;94.30;;;;;;5114405;28;20203;-86
2024/02/26 09:45:59;;;;;;;32.40;27.27;;;3.80;94.20;;;;;;5116381;28;20173;-87
2024/02/26 09:48:25;;;;;;;32.63;25.80;;;3.80;94.10;;;;;;5115977;28;20565;-86
2024/02/26 09:50:52;;;;;;;32.80;25.80;;;3.80;94.00;;;;;;5116171;28;20199;-85
2024/02/26 09:53:20;;;;;;;28.30;24.83;;;3.90;94.00;;;;;;5114942;28;20288;-86
2024/02/26 09:55:45;;;;;;;29.63;26.40;;;3.90;93.90;;;;;;5116544;28;20547;-85
2024/02/26 09:58:18;;;;;;;28.63;25.03;;;3.90;93.80;;;;;;5115594;28;20189;-86
2024/02/26 10:00:50;;;;;;;28.23;25.23;;;4.00;93.80;;;;;;5114578;28;20193;-86
2024/02/26 10:03:21;;;;;;;29.23;26.03;;;4.00;93.80;;;;;;5116083;28;20252;-85
2024/02/26 10:05:48;;;;;;;33.63;30.03;;;4.20;93.90;;;;;;5115011;28;20244;-85
2024/02/26 10:08:14;;;;;;;31.97;28.90;;;4.20;93.80;;;;;;5115579;28;20220;-85
2024/02/26 10:10:40;;;;;;;33.37;30.03;;;4.20;93.60;;;;;;5114960;28;20205;-86
2024/02/26 10:13:10;;;;;;;33.97;30.37;;;4.30;93.60;;;;;;5114186;28;20229;-86
2024/02/26 10:15:36;;;;;;;34.17;29.53;;;4.30;93.60;;;;;;5115066;28;20168;-86
2024/02/26 10:18:05;;;;;;;34.23;30.73;;;4.40;93.50;;;;;;5115042;28;20192;-86
2024/02/26 10:20:31;;;;;;;34.67;31.07;;;4.40;93.50;;;;;;5115246;28;20549;-86
2024/02/26 10:22:57;;;;;;;34.10;30.60;;;4.60;93.60;;;;;;5113474;28;20305;-87
2024/02/26 10:25:23;;;;;;;32.83;29.60;;;4.60;93.50;;;;;;5114365;28;20174;-86
2024/02/26 10:27:49;;;;;;;32.93;29.70;;;4.60;93.40;;;;;;5114135;28;20737;-86
2024/02/26 10:30:22;;;;;;;32.53;29.33;;;4.70;93.30;;;;;;5114199;28;20240;-86
2024/02/26 10:32:49;;;;;;;32.37;29.07;;;4.70;93.30;;;;;;5113931;28;20197;-86
2024/02/26 10:35:16;;;;;;;33.33;30.00;;;4.80;93.20;;;;;;5114090;28;20533;-86
2024/02/26 10:37:41;;;;;;;34.30;31.03;;;4.80;93.10;;;;;;5115068;28;20176;-86
2024/02/26 10:40:14;;;;;;;33.33;29.97;;;4.90;93.10;;;;;;5114058;28;20182;-86
2024/02/26 10:42:41;;;;;;;34.20;30.80;;;5.00;93.20;;;;;;5114120;28;20185;-86
2024/02/26 10:45:09;;;;;;;34.47;31.07;;;5.00;93.20;;;;;;5114385;28;20359;-86
2024/02/26 10:47:37;;;;;;;34.57;31.17;;;5.10;93.00;;;;;;5115357;28;20173;-86
2024/02/26 10:50:05;;;;;;;32.87;29.77;;;5.10;92.90;;;;;;5114836;28;20201;-86
2024/02/26 10:52:35;;;;;;;31.90;28.90;;;5.10;92.90;;;;;;5114689;28;20645;-86
2024/02/26 10:55:02;;;;;;;33.43;30.43;;;5.20;92.80;;;;;;5113452;28;20166;-86
2024/02/26 10:57:33;;;;;;;35.37;31.97;;;5.20;92.70;;;;;;5114823;28;20162;-86
2024/02/26 11:00:01;;;;;;;34.17;31.07;;;5.20;92.70;;;;;;5114250;28;20548;-87
2024/02/26 11:02:27;;;;;;;34.07;30.93;;;5.20;92.60;;;;;;5113389;28;20268;-86
2024/02/26 11:04:53;;;;;;;33.93;30.73;;;5.30;92.50;;;;;;5113009;28;20249;-89
2024/02/26 11:07:20;;;;;;;30.67;27.40;;;5.30;92.50;;;;;;5114473;28;20146;-86
2024/02/26 11:09:51;;;;;;;29.77;26.43;;;5.30;92.40;;;;;;5114890;28;20181;-86
2024/02/26 11:12:17;;;;;;;31.57;28.37;;;5.40;92.30;;;;;;5114758;28;20614;-85
2024/02/26 11:14:45;;;;;;;31.80;28.43;;;5.30;92.10;;;;;;5114465;28;20165;-86
2024/02/26 11:17:13;;;;;;;30.23;27.13;;;5.40;92.10;;;;;;5113545;28;20174;-86
2024/02/26 11:19:41;;;;;;;31.73;26.87;;;5.50;92.00;;;;;;5117017;28;20190;-86
2024/02/26 11:22:07;;;;;;;29.17;26.30;;;5.50;91.90;;;;;;5117512;28;20523;-86
2024/02/26 11:24:33;;;;;;;29.17;26.20;;;5.40;91.80;;;;;;5118770;28;20198;-86
2024/02/26 11:27:03;;;;;;;30.33;27.27;;;5.50;91.90;;;;;;5117589;28;20169;-88
2024/02/26 11:29:37;;;;;;;31.13;27.93;;;5.60;91.90;;;;;;5118765;28;20334;-86
2024/02/26 11:32:03;;;;;;;32.07;28.77;;;5.70;91.90;;;;;;5117198;28;20288;-86
2024/02/26 11:34:29;;;;;;;30.43;27.43;;;5.70;91.80;;;;;;5117347;28;20166;-86
2024/02/26 11:36:55;;;;;;;29.70;26.83;;;5.80;91.80;;;;;;5117511;28;20176;-86
2024/02/26 11:39:22;;;;;;;31.03;28.00;;;5.80;91.60;;;;;;5118593;28;20194;-86
2024/02/26 11:41:47;;;;;;;31.37;28.07;;;5.70;91.40;;;;;;5118682;28;20606;-86
2024/02/26 11:44:13;;;;;;;31.30;28.00;;;5.60;91.10;;;;;;5117818;28;20173;-85
2024/02/26 11:46:40;;;;;;;31.13;27.83;;;5.60;91.20;;;;;;5118351;28;20599;-85
2024/02/26 11:49:25;;;;;;;30.87;27.77;;;5.60;91.20;;;;;;5118171;28;20217;-86
2024/02/26 11:51:52;;;;;;;31.37;28.13;;;5.50;91.20;;;;;;5118181;28;20220;-85
2024/02/26 11:54:45;;;;;;;31.43;28.17;;;5.70;91.40;;;;;;5118133;28;20177;-86
2024/02/26 11:57:37;;;;;;;30.27;27.07;;;5.70;91.50;;;;;;5116847;28;20714;-86
2024/02/26 12:00:06;;;;;;;35.53;32.03;;;5.80;91.40;;;;;;5116898;28;20169;-85
2024/02/26 12:02:45;;;;;;;33.83;30.47;;;5.70;91.10;;;;;;5118234;28;20216;-86
2024/02/26 12:05:13;;;;;;;36.17;32.53;;;5.60;91.00;;;;;;5118463;28;20190;-85
2024/02/26 12:08:06;;;;;;;35.53;31.93;;;5.50;91.20;;;;;;5117171;28;20537;-85
2024/02/26 12:10:35;;;;;;;35.90;32.30;;;5.50;91.40;;;;;;5114711;28;20209;-86
2024/02/26 12:13:19;;;;;;;35.73;32.03;;;5.60;91.40;;;;;;5117025;28;20178;-86
2024/02/26 12:15:51;;;;;;;36.57;32.60;;;5.50;91.30;;;;;;5116641;28;20178;-86
2024/02/26 12:18:18;;;;;;;35.07;31.73;;;5.40;91.30;;;;;;5118004;28;20197;-88
2024/02/26 12:20:44;;;;;;;36.13;32.67;;;5.50;91.50;;;;;;5117652;28;20549;-86
2024/02/26 12:23:16;;;;;;;37.67;33.87;;;5.50;91.50;;;;;;5117777;28;20257;-88
2024/02/26 12:25:44;;;;;;;37.97;34.23;;;5.50;91.30;;;;;;5115892;28;20170;-86
2024/02/26 12:28:09;;;;;;;36.47;33.07;;;5.50;91.30;;;;;;5116819;28;20289;-87
2024/02/26 12:30:35;;;;;;;33.67;30.27;;;5.50;91.30;;;;;;5116635;28;20229;-85
2024/02/26 12:33:01;;;;;;;37.53;33.87;;;5.30;91.00;;;;;;5116576;28;20178;-86